sensor_id;sensor_type;location;lat;lon;timestamp;temperature;humidity
16532;DHT22;66872;63.142;14.482;2023-01-29T00:01:07;20.80;17.20
16532;DHT22;66872;63.142;14.482;2023-01-29T00:03:34;20.80;17.20
16532;DHT22;66872;63.142;14.482;2023-01-29T00:06:04;20.80;17.10
16532;DHT22;66872;63.142;14.482;2023-01-29T00:08:35;20.80;17.10
16532;DHT22;66872;63.142;14.482;2023-01-29T00:11:03;20.80;17.10
16532;DHT22;66872;63.142;14.482;2023-01-29T00:13:29;20.80;17.10
16532;DHT22;66872;63.142;14.482;2023-01-29T00:15:56;20.80;17.10
16532;DHT22;66872;63.142;14.482;2023-01-29T00:18:23;20.80;17.10
16532;DHT22;66872;63.142;14.482;2023-01-29T00:20:49;20.80;17.10
16532;DHT22;66872;63.142;14.482;2023-01-29T00:23:15;20.80;17.00
16532;DHT22;66872;63.142;14.482;2023-01-29T00:25:42;20.80;17.00
16532;DHT22;66872;63.142;14.482;2023-01-29T00:28:08;20.80;17.00
16532;DHT22;66872;63.142;14.482;2023-01-29T00:30:35;20.80;17.00
16532;DHT22;66872;63.142;14.482;2023-01-29T00:33:01;20.80;17.00
16532;DHT22;66872;63.142;14.482;2023-01-29T00:35:27;20.80;16.90
16532;DHT22;66872;63.142;14.482;2023-01-29T00:37:54;20.80;17.00
16532;DHT22;66872;63.142;14.482;2023-01-29T00:40:20;20.80;16.90
16532;DHT22;66872;63.142;14.482;2023-01-29T00:42:47;20.80;16.90
16532;DHT22;66872;63.142;14.482;2023-01-29T00:45:32;20.80;16.90
16532;DHT22;66872;63.142;14.482;2023-01-29T00:47:58;20.80;16.90
16532;DHT22;66872;63.142;14.482;2023-01-29T00:50:24;20.80;16.80
16532;DHT22;66872;63.142;14.482;2023-01-29T00:52:50;20.80;16.90
16532;DHT22;66872;63.142;14.482;2023-01-29T00:55:17;20.80;16.80
16532;DHT22;66872;63.142;14.482;2023-01-29T00:57:43;20.80;16.80
16532;DHT22;66872;63.142;14.482;2023-01-29T01:00:13;20.80;16.90
16532;DHT22;66872;63.142;14.482;2023-01-29T01:02:39;20.80;16.80
16532;DHT22;66872;63.142;14.482;2023-01-29T01:05:24;20.80;16.80
16532;DHT22;66872;63.142;14.482;2023-01-29T01:07:52;20.80;16.80
16532;DHT22;66872;63.142;14.482;2023-01-29T01:10:29;20.80;16.80
16532;DHT22;66872;63.142;14.482;2023-01-29T01:13:01;20.80;16.80
16532;DHT22;66872;63.142;14.482;2023-01-29T01:15:36;20.90;16.80
16532;DHT22;66872;63.142;14.482;2023-01-29T01:18:02;20.80;16.70
16532;DHT22;66872;63.142;14.482;2023-01-29T01:20:31;20.80;16.70
16532;DHT22;66872;63.142;14.482;2023-01-29T01:22:57;20.80;16.70
16532;DHT22;66872;63.142;14.482;2023-01-29T01:25:24;20.80;16.70
16532;DHT22;66872;63.142;14.482;2023-01-29T01:27:53;20.90;16.80
16532;DHT22;66872;63.142;14.482;2023-01-29T01:30:20;20.90;16.80
16532;DHT22;66872;63.142;14.482;2023-01-29T01:32:45;20.90;16.80
16532;DHT22;66872;63.142;14.482;2023-01-29T01:35:11;20.90;16.80
16532;DHT22;66872;63.142;14.482;2023-01-29T01:37:39;20.80;16.70
16532;DHT22;66872;63.142;14.482;2023-01-29T01:40:07;20.90;16.70
16532;DHT22;66872;63.142;14.482;2023-01-29T01:42:38;20.90;16.80
16532;DHT22;66872;63.142;14.482;2023-01-29T01:45:05;20.90;16.70
16532;DHT22;66872;63.142;14.482;2023-01-29T01:47:42;20.90;16.70
16532;DHT22;66872;63.142;14.482;2023-01-29T01:52:41;20.90;16.70
16532;DHT22;66872;63.142;14.482;2023-01-29T01:55:12;20.90;16.70
16532;DHT22;66872;63.142;14.482;2023-01-29T01:57:39;20.90;16.70
16532;DHT22;66872;63.142;14.482;2023-01-29T02:00:10;20.90;16.70
16532;DHT22;66872;63.142;14.482;2023-01-29T02:02:38;20.90;16.70
16532;DHT22;66872;63.142;14.482;2023-01-29T02:05:24;20.90;16.70
16532;DHT22;66872;63.142;14.482;2023-01-29T02:08:09;20.90;16.70
16532;DHT22;66872;63.142;14.482;2023-01-29T02:10:54;20.90;16.70
16532;DHT22;66872;63.142;14.482;2023-01-29T02:13:20;20.90;16.70
16532;DHT22;66872;63.142;14.482;2023-01-29T02:15:47;20.90;16.70
16532;DHT22;66872;63.142;14.482;2023-01-29T02:18:18;20.90;16.70
16532;DHT22;66872;63.142;14.482;2023-01-29T02:21:36;20.90;16.80
16532;DHT22;66872;63.142;14.482;2023-01-29T02:27:40;21.00;16.80
16532;DHT22;66872;63.142;14.482;2023-01-29T02:40:43;21.00;16.70
16532;DHT22;66872;63.142;14.482;2023-01-29T02:43:34;21.00;16.70
16532;DHT22;66872;63.142;14.482;2023-01-29T02:49:26;21.00;16.70
16532;DHT22;66872;63.142;14.482;2023-01-29T02:52:14;21.00;16.70
16532;DHT22;66872;63.142;14.482;2023-01-29T02:54:44;21.00;17.20
16532;DHT22;66872;63.142;14.482;2023-01-29T03:03:20;21.00;16.70
16532;DHT22;66872;63.142;14.482;2023-01-29T03:08:45;21.00;16.70
16532;DHT22;66872;63.142;14.482;2023-01-29T03:11:12;21.00;16.80
16532;DHT22;66872;63.142;14.482;2023-01-29T03:13:50;21.00;16.80
16532;DHT22;66872;63.142;14.482;2023-01-29T03:16:39;21.00;16.80
16532;DHT22;66872;63.142;14.482;2023-01-29T03:19:15;21.00;16.90
16532;DHT22;66872;63.142;14.482;2023-01-29T03:21:47;21.00;16.90
16532;DHT22;66872;63.142;14.482;2023-01-29T03:27:17;21.00;16.90
16532;DHT22;66872;63.142;14.482;2023-01-29T03:30:06;21.10;17.00
16532;DHT22;66872;63.142;14.482;2023-01-29T03:32:55;21.10;17.00
16532;DHT22;66872;63.142;14.482;2023-01-29T03:35:24;21.10;16.90
16532;DHT22;66872;63.142;14.482;2023-01-29T03:38:02;21.10;16.90
16532;DHT22;66872;63.142;14.482;2023-01-29T03:40:48;21.10;17.00
16532;DHT22;66872;63.142;14.482;2023-01-29T03:43:38;21.10;17.00
16532;DHT22;66872;63.142;14.482;2023-01-29T03:46:26;21.10;17.00
16532;DHT22;66872;63.142;14.482;2023-01-29T03:49:09;21.10;17.00
16532;DHT22;66872;63.142;14.482;2023-01-29T03:54:28;21.10;17.00
16532;DHT22;66872;63.142;14.482;2023-01-29T03:59:25;21.10;17.00
16532;DHT22;66872;63.142;14.482;2023-01-29T04:01:58;21.10;17.00
16532;DHT22;66872;63.142;14.482;2023-01-29T04:04:29;21.10;17.00
16532;DHT22;66872;63.142;14.482;2023-01-29T04:06:59;21.10;17.00
16532;DHT22;66872;63.142;14.482;2023-01-29T04:09:31;21.10;17.00
16532;DHT22;66872;63.142;14.482;2023-01-29T04:12:04;21.10;17.10
16532;DHT22;66872;63.142;14.482;2023-01-29T04:14:34;21.10;17.00
16532;DHT22;66872;63.142;14.482;2023-01-29T04:17:05;21.10;17.00
16532;DHT22;66872;63.142;14.482;2023-01-29T04:19:33;21.10;17.00
16532;DHT22;66872;63.142;14.482;2023-01-29T04:22:16;21.10;17.00
16532;DHT22;66872;63.142;14.482;2023-01-29T04:24:43;21.10;17.00
16532;DHT22;66872;63.142;14.482;2023-01-29T04:30:21;21.10;17.60
16532;DHT22;66872;63.142;14.482;2023-01-29T04:41:09;21.10;17.10
16532;DHT22;66872;63.142;14.482;2023-01-29T04:43:43;21.10;17.60
16532;DHT22;66872;63.142;14.482;2023-01-29T04:51:42;21.10;17.10
16532;DHT22;66872;63.142;14.482;2023-01-29T04:59:29;21.10;17.10
16532;DHT22;66872;63.142;14.482;2023-01-29T05:01:59;21.10;17.00
16532;DHT22;66872;63.142;14.482;2023-01-29T05:04:28;21.10;17.20
16532;DHT22;66872;63.142;14.482;2023-01-29T05:06:59;21.10;17.10
16532;DHT22;66872;63.142;14.482;2023-01-29T05:09:25;21.20;17.10
16532;DHT22;66872;63.142;14.482;2023-01-29T05:11:51;21.20;17.10
16532;DHT22;66872;63.142;14.482;2023-01-29T05:14:18;21.20;17.10
16532;DHT22;66872;63.142;14.482;2023-01-29T05:16:48;21.20;17.10
16532;DHT22;66872;63.142;14.482;2023-01-29T05:19:16;21.20;17.10
16532;DHT22;66872;63.142;14.482;2023-01-29T05:21:46;21.20;17.10
16532;DHT22;66872;63.142;14.482;2023-01-29T05:24:19;21.20;17.00
16532;DHT22;66872;63.142;14.482;2023-01-29T05:26:47;21.20;17.00
16532;DHT22;66872;63.142;14.482;2023-01-29T05:29:31;21.20;17.00
16532;DHT22;66872;63.142;14.482;2023-01-29T05:31:57;21.20;17.00
16532;DHT22;66872;63.142;14.482;2023-01-29T05:34:23;21.20;17.00
16532;DHT22;66872;63.142;14.482;2023-01-29T05:36:49;21.20;17.00
16532;DHT22;66872;63.142;14.482;2023-01-29T05:39:15;21.20;17.00
16532;DHT22;66872;63.142;14.482;2023-01-29T05:41:41;21.20;17.00
16532;DHT22;66872;63.142;14.482;2023-01-29T05:44:09;21.20;17.00
16532;DHT22;66872;63.142;14.482;2023-01-29T05:46:36;21.20;17.00
16532;DHT22;66872;63.142;14.482;2023-01-29T05:49:02;21.20;17.00
16532;DHT22;66872;63.142;14.482;2023-01-29T05:51:28;21.20;17.00
16532;DHT22;66872;63.142;14.482;2023-01-29T05:53:53;21.20;17.00
16532;DHT22;66872;63.142;14.482;2023-01-29T05:56:19;21.20;17.00
16532;DHT22;66872;63.142;14.482;2023-01-29T05:58:45;21.20;17.00
16532;DHT22;66872;63.142;14.482;2023-01-29T06:03:37;21.20;17.00
16532;DHT22;66872;63.142;14.482;2023-01-29T06:06:03;21.20;17.00
16532;DHT22;66872;63.142;14.482;2023-01-29T06:08:29;21.20;17.00
16532;DHT22;66872;63.142;14.482;2023-01-29T06:10:54;21.20;17.00
16532;DHT22;66872;63.142;14.482;2023-01-29T06:13:20;21.20;17.00
16532;DHT22;66872;63.142;14.482;2023-01-29T06:15:46;21.20;17.00
16532;DHT22;66872;63.142;14.482;2023-01-29T06:18:11;21.20;17.00
16532;DHT22;66872;63.142;14.482;2023-01-29T06:20:37;21.20;17.00
16532;DHT22;66872;63.142;14.482;2023-01-29T06:23:03;21.20;17.00
16532;DHT22;66872;63.142;14.482;2023-01-29T06:25:29;21.20;17.00
16532;DHT22;66872;63.142;14.482;2023-01-29T06:27:55;21.20;17.00
16532;DHT22;66872;63.142;14.482;2023-01-29T06:30:21;21.20;17.00
16532;DHT22;66872;63.142;14.482;2023-01-29T06:32:46;21.20;17.00
16532;DHT22;66872;63.142;14.482;2023-01-29T06:35:12;21.20;17.10
16532;DHT22;66872;63.142;14.482;2023-01-29T06:37:38;21.20;17.10
16532;DHT22;66872;63.142;14.482;2023-01-29T06:40:04;21.20;17.10
16532;DHT22;66872;63.142;14.482;2023-01-29T06:42:30;21.20;17.10
16532;DHT22;66872;63.142;14.482;2023-01-29T06:44:56;21.20;17.10
16532;DHT22;66872;63.142;14.482;2023-01-29T06:47:22;21.20;17.10
16532;DHT22;66872;63.142;14.482;2023-01-29T06:49:49;21.20;17.10
16532;DHT22;66872;63.142;14.482;2023-01-29T06:52:14;21.20;17.10
16532;DHT22;66872;63.142;14.482;2023-01-29T06:54:40;21.20;17.10
16532;DHT22;66872;63.142;14.482;2023-01-29T06:57:05;21.20;17.10
16532;DHT22;66872;63.142;14.482;2023-01-29T06:59:31;21.20;17.20
16532;DHT22;66872;63.142;14.482;2023-01-29T07:01:57;21.20;17.20
16532;DHT22;66872;63.142;14.482;2023-01-29T07:04:22;21.20;17.20
16532;DHT22;66872;63.142;14.482;2023-01-29T07:06:48;21.20;17.20
16532;DHT22;66872;63.142;14.482;2023-01-29T07:09:14;21.20;17.20
16532;DHT22;66872;63.142;14.482;2023-01-29T07:11:39;21.20;17.30
16532;DHT22;66872;63.142;14.482;2023-01-29T07:14:05;21.20;17.30
16532;DHT22;66872;63.142;14.482;2023-01-29T07:16:32;21.20;17.30
16532;DHT22;66872;63.142;14.482;2023-01-29T07:18:58;21.20;17.30
16532;DHT22;66872;63.142;14.482;2023-01-29T07:21:23;21.20;17.30
16532;DHT22;66872;63.142;14.482;2023-01-29T07:23:49;21.20;17.30
16532;DHT22;66872;63.142;14.482;2023-01-29T07:26:15;21.20;17.30
16532;DHT22;66872;63.142;14.482;2023-01-29T07:28:41;21.20;17.30
16532;DHT22;66872;63.142;14.482;2023-01-29T07:31:08;21.20;17.40
16532;DHT22;66872;63.142;14.482;2023-01-29T07:33:35;21.20;17.40
16532;DHT22;66872;63.142;14.482;2023-01-29T07:36:01;21.20;18.10
16532;DHT22;66872;63.142;14.482;2023-01-29T07:38:31;21.20;19.00
16532;DHT22;66872;63.142;14.482;2023-01-29T07:40:57;21.20;19.40
16532;DHT22;66872;63.142;14.482;2023-01-29T07:43:22;21.30;19.60
16532;DHT22;66872;63.142;14.482;2023-01-29T07:45:49;21.20;19.60
16532;DHT22;66872;63.142;14.482;2023-01-29T07:48:15;21.20;19.60
16532;DHT22;66872;63.142;14.482;2023-01-29T07:50:40;21.30;19.70
16532;DHT22;66872;63.142;14.482;2023-01-29T07:53:07;21.30;19.80
16532;DHT22;66872;63.142;14.482;2023-01-29T07:55:34;21.30;19.80
16532;DHT22;66872;63.142;14.482;2023-01-29T07:58:01;21.30;19.90
16532;DHT22;66872;63.142;14.482;2023-01-29T08:00:28;21.30;20.00
16532;DHT22;66872;63.142;14.482;2023-01-29T08:03:04;21.30;20.00
16532;DHT22;66872;63.142;14.482;2023-01-29T08:05:29;21.30;20.00
16532;DHT22;66872;63.142;14.482;2023-01-29T08:07:55;21.30;20.00
16532;DHT22;66872;63.142;14.482;2023-01-29T08:10:21;21.30;20.00
16532;DHT22;66872;63.142;14.482;2023-01-29T08:12:46;21.30;20.00
16532;DHT22;66872;63.142;14.482;2023-01-29T08:15:12;21.30;20.00
16532;DHT22;66872;63.142;14.482;2023-01-29T08:17:38;21.20;19.90
16532;DHT22;66872;63.142;14.482;2023-01-29T08:20:05;21.30;19.90
16532;DHT22;66872;63.142;14.482;2023-01-29T08:22:31;21.20;19.80
16532;DHT22;66872;63.142;14.482;2023-01-29T08:24:57;21.20;19.80
16532;DHT22;66872;63.142;14.482;2023-01-29T08:27:22;21.20;19.80
16532;DHT22;66872;63.142;14.482;2023-01-29T08:29:48;21.20;19.90
16532;DHT22;66872;63.142;14.482;2023-01-29T08:32:14;21.20;19.80
16532;DHT22;66872;63.142;14.482;2023-01-29T08:34:39;21.20;19.80
16532;DHT22;66872;63.142;14.482;2023-01-29T08:37:05;21.20;19.70
16532;DHT22;66872;63.142;14.482;2023-01-29T08:39:31;21.20;19.70
16532;DHT22;66872;63.142;14.482;2023-01-29T08:41:56;21.20;19.70
16532;DHT22;66872;63.142;14.482;2023-01-29T08:44:22;21.20;19.70
16532;DHT22;66872;63.142;14.482;2023-01-29T08:46:48;21.20;19.70
16532;DHT22;66872;63.142;14.482;2023-01-29T08:49:13;21.20;19.60
16532;DHT22;66872;63.142;14.482;2023-01-29T08:51:39;21.20;19.60
16532;DHT22;66872;63.142;14.482;2023-01-29T08:54:05;21.20;19.60
16532;DHT22;66872;63.142;14.482;2023-01-29T08:56:30;21.20;19.60
16532;DHT22;66872;63.142;14.482;2023-01-29T08:58:56;21.20;19.60
16532;DHT22;66872;63.142;14.482;2023-01-29T09:01:21;21.20;19.50
16532;DHT22;66872;63.142;14.482;2023-01-29T09:03:47;21.20;19.50
16532;DHT22;66872;63.142;14.482;2023-01-29T09:06:14;21.20;19.40
16532;DHT22;66872;63.142;14.482;2023-01-29T09:08:40;21.20;19.40
16532;DHT22;66872;63.142;14.482;2023-01-29T09:11:06;21.20;19.40
16532;DHT22;66872;63.142;14.482;2023-01-29T09:13:33;21.10;19.40
16532;DHT22;66872;63.142;14.482;2023-01-29T09:16:03;21.20;19.40
16532;DHT22;66872;63.142;14.482;2023-01-29T09:18:30;21.10;19.40
16532;DHT22;66872;63.142;14.482;2023-01-29T09:20:56;21.10;19.40
16532;DHT22;66872;63.142;14.482;2023-01-29T09:23:22;21.10;19.40
16532;DHT22;66872;63.142;14.482;2023-01-29T09:25:48;21.10;19.30
16532;DHT22;66872;63.142;14.482;2023-01-29T09:28:14;21.10;19.30
16532;DHT22;66872;63.142;14.482;2023-01-29T09:30:42;21.10;19.40
16532;DHT22;66872;63.142;14.482;2023-01-29T09:33:08;21.10;19.40
16532;DHT22;66872;63.142;14.482;2023-01-29T09:35:34;21.10;19.40
16532;DHT22;66872;63.142;14.482;2023-01-29T09:38:00;21.10;19.40
16532;DHT22;66872;63.142;14.482;2023-01-29T09:40:59;21.10;19.40
16532;DHT22;66872;63.142;14.482;2023-01-29T09:43:44;21.10;19.40
16532;DHT22;66872;63.142;14.482;2023-01-29T09:46:34;21.10;19.40
16532;DHT22;66872;63.142;14.482;2023-01-29T09:49:27;21.00;19.40
16532;DHT22;66872;63.142;14.482;2023-01-29T09:52:01;21.00;19.50
16532;DHT22;66872;63.142;14.482;2023-01-29T09:54:34;21.10;19.50
16532;DHT22;66872;63.142;14.482;2023-01-29T09:57:09;21.00;19.50
16532;DHT22;66872;63.142;14.482;2023-01-29T09:59:36;21.10;19.50
16532;DHT22;66872;63.142;14.482;2023-01-29T10:05:24;21.00;19.50
16532;DHT22;66872;63.142;14.482;2023-01-29T10:24:53;21.00;19.50
16532;DHT22;66872;63.142;14.482;2023-01-29T10:27:17;21.00;19.50
16532;DHT22;66872;63.142;14.482;2023-01-29T10:29:45;21.00;19.50
16532;DHT22;66872;63.142;14.482;2023-01-29T10:32:15;21.00;19.60
16532;DHT22;66872;63.142;14.482;2023-01-29T10:34:47;21.00;19.60
16532;DHT22;66872;63.142;14.482;2023-01-29T10:37:17;21.00;19.60
16532;DHT22;66872;63.142;14.482;2023-01-29T10:39:44;21.00;19.60
16532;DHT22;66872;63.142;14.482;2023-01-29T10:42:18;21.00;19.60
16532;DHT22;66872;63.142;14.482;2023-01-29T10:44:56;21.00;19.60
16532;DHT22;66872;63.142;14.482;2023-01-29T10:48:05;21.00;19.60
16532;DHT22;66872;63.142;14.482;2023-01-29T10:54:17;21.00;19.60
16532;DHT22;66872;63.142;14.482;2023-01-29T11:01:48;21.00;19.70
16532;DHT22;66872;63.142;14.482;2023-01-29T11:04:14;21.00;19.70
16532;DHT22;66872;63.142;14.482;2023-01-29T11:06:40;21.00;19.60
16532;DHT22;66872;63.142;14.482;2023-01-29T11:14:27;21.00;19.80
16532;DHT22;66872;63.142;14.482;2023-01-29T11:16:54;21.00;19.70
16532;DHT22;66872;63.142;14.482;2023-01-29T11:19:38;21.00;19.80
16532;DHT22;66872;63.142;14.482;2023-01-29T11:22:04;21.10;19.80
16532;DHT22;66872;63.142;14.482;2023-01-29T11:24:36;21.00;19.80
16532;DHT22;66872;63.142;14.482;2023-01-29T11:29:47;21.00;19.80
16532;DHT22;66872;63.142;14.482;2023-01-29T11:32:24;21.00;19.70
16532;DHT22;66872;63.142;14.482;2023-01-29T11:35:00;21.00;19.70
16532;DHT22;66872;63.142;14.482;2023-01-29T11:37:35;21.00;19.80
16532;DHT22;66872;63.142;14.482;2023-01-29T11:40:06;21.00;19.80
16532;DHT22;66872;63.142;14.482;2023-01-29T11:42:47;21.00;19.80
16532;DHT22;66872;63.142;14.482;2023-01-29T11:45:25;21.00;19.70
16532;DHT22;66872;63.142;14.482;2023-01-29T11:47:53;21.00;19.70
16532;DHT22;66872;63.142;14.482;2023-01-29T11:50:26;21.00;19.70
16532;DHT22;66872;63.142;14.482;2023-01-29T11:52:52;21.00;19.70
16532;DHT22;66872;63.142;14.482;2023-01-29T11:55:21;21.00;19.70
16532;DHT22;66872;63.142;14.482;2023-01-29T11:57:51;21.00;19.70
16532;DHT22;66872;63.142;14.482;2023-01-29T12:00:26;21.00;19.60
16532;DHT22;66872;63.142;14.482;2023-01-29T12:05:22;21.00;19.60
16532;DHT22;66872;63.142;14.482;2023-01-29T12:07:53;21.00;19.60
16532;DHT22;66872;63.142;14.482;2023-01-29T12:10:34;21.00;19.60
16532;DHT22;66872;63.142;14.482;2023-01-29T12:13:05;21.10;19.60
16532;DHT22;66872;63.142;14.482;2023-01-29T12:15:31;21.00;19.60
16532;DHT22;66872;63.142;14.482;2023-01-29T12:18:07;21.00;19.50
16532;DHT22;66872;63.142;14.482;2023-01-29T12:20:42;21.00;19.50
16532;DHT22;66872;63.142;14.482;2023-01-29T12:23:42;21.00;19.50
16532;DHT22;66872;63.142;14.482;2023-01-29T12:26:15;21.10;19.60
16532;DHT22;66872;63.142;14.482;2023-01-29T12:28:58;21.10;19.60
16532;DHT22;66872;63.142;14.482;2023-01-29T12:31:49;21.10;19.60
16532;DHT22;66872;63.142;14.482;2023-01-29T12:40:15;21.10;19.60
16532;DHT22;66872;63.142;14.482;2023-01-29T12:42:45;21.10;19.60
16532;DHT22;66872;63.142;14.482;2023-01-29T12:45:17;21.10;19.60
16532;DHT22;66872;63.142;14.482;2023-01-29T12:47:50;21.10;19.70
16532;DHT22;66872;63.142;14.482;2023-01-29T12:50:24;21.10;19.80
16532;DHT22;66872;63.142;14.482;2023-01-29T12:52:57;21.10;20.00
16532;DHT22;66872;63.142;14.482;2023-01-29T12:55:37;21.20;20.20
16532;DHT22;66872;63.142;14.482;2023-01-29T12:58:15;21.20;20.20
16532;DHT22;66872;63.142;14.482;2023-01-29T13:00:48;21.30;20.20
16532;DHT22;66872;63.142;14.482;2023-01-29T13:05:51;21.30;20.20
16532;DHT22;66872;63.142;14.482;2023-01-29T13:08:22;21.30;20.20
16532;DHT22;66872;63.142;14.482;2023-01-29T13:10:52;21.40;20.30
16532;DHT22;66872;63.142;14.482;2023-01-29T13:13:41;21.40;20.40
16532;DHT22;66872;63.142;14.482;2023-01-29T13:16:11;21.50;20.40
16532;DHT22;66872;63.142;14.482;2023-01-29T13:18:45;21.50;20.40
16532;DHT22;66872;63.142;14.482;2023-01-29T13:21:21;21.50;20.40
16532;DHT22;66872;63.142;14.482;2023-01-29T13:23:54;21.60;20.40
16532;DHT22;66872;63.142;14.482;2023-01-29T13:26:21;21.60;20.40
16532;DHT22;66872;63.142;14.482;2023-01-29T13:28:47;21.60;20.40
16532;DHT22;66872;63.142;14.482;2023-01-29T13:33:52;21.60;20.40
16532;DHT22;66872;63.142;14.482;2023-01-29T13:36:24;21.60;20.30
16532;DHT22;66872;63.142;14.482;2023-01-29T13:39:02;21.60;20.30
16532;DHT22;66872;63.142;14.482;2023-01-29T13:41:40;21.60;20.90
16532;DHT22;66872;63.142;14.482;2023-01-29T13:44:36;21.60;20.40
16532;DHT22;66872;63.142;14.482;2023-01-29T13:47:11;21.70;20.60
16532;DHT22;66872;63.142;14.482;2023-01-29T13:49:52;21.70;20.50
16532;DHT22;66872;63.142;14.482;2023-01-29T13:52:36;21.70;20.30
16532;DHT22;66872;63.142;14.482;2023-01-29T13:55:08;21.70;20.30
16532;DHT22;66872;63.142;14.482;2023-01-29T14:05:43;21.70;20.20
16532;DHT22;66872;63.142;14.482;2023-01-29T14:08:43;21.70;20.20
16532;DHT22;66872;63.142;14.482;2023-01-29T14:13:38;21.70;20.20
16532;DHT22;66872;63.142;14.482;2023-01-29T14:18:33;21.70;20.20
16532;DHT22;66872;63.142;14.482;2023-01-29T14:23:48;21.80;20.20
16532;DHT22;66872;63.142;14.482;2023-01-29T14:31:48;21.90;20.20
16532;DHT22;66872;63.142;14.482;2023-01-29T14:36:41;21.80;20.20
16532;DHT22;66872;63.142;14.482;2023-01-29T14:39:34;21.80;20.20
16532;DHT22;66872;63.142;14.482;2023-01-29T14:50:45;21.90;20.10
16532;DHT22;66872;63.142;14.482;2023-01-29T14:53:28;21.90;20.10
16532;DHT22;66872;63.142;14.482;2023-01-29T14:59:22;21.80;20.10
16532;DHT22;66872;63.142;14.482;2023-01-29T15:02:27;21.80;20.10
16532;DHT22;66872;63.142;14.482;2023-01-29T15:08:19;21.70;20.10
16532;DHT22;66872;63.142;14.482;2023-01-29T15:14:35;21.70;20.20
16532;DHT22;66872;63.142;14.482;2023-01-29T15:20:46;21.60;20.20
16532;DHT22;66872;63.142;14.482;2023-01-29T15:26:34;21.60;20.30
16532;DHT22;66872;63.142;14.482;2023-01-29T15:29:22;21.70;20.20
16532;DHT22;66872;63.142;14.482;2023-01-29T15:35:16;21.70;20.40
16532;DHT22;66872;63.142;14.482;2023-01-29T15:38:00;21.70;20.40
16532;DHT22;66872;63.142;14.482;2023-01-29T15:40:57;21.80;20.50
16532;DHT22;66872;63.142;14.482;2023-01-29T15:43:42;21.80;20.60
16532;DHT22;66872;63.142;14.482;2023-01-29T15:51:54;21.90;20.40
16532;DHT22;66872;63.142;14.482;2023-01-29T15:58:04;22.00;20.40
16532;DHT22;66872;63.142;14.482;2023-01-29T16:00:53;22.10;20.40
16532;DHT22;66872;63.142;14.482;2023-01-29T16:03:40;22.10;20.40
16532;DHT22;66872;63.142;14.482;2023-01-29T16:06:25;22.10;20.40
16532;DHT22;66872;63.142;14.482;2023-01-29T16:09:31;22.20;20.40
16532;DHT22;66872;63.142;14.482;2023-01-29T16:12:17;22.10;20.40
16532;DHT22;66872;63.142;14.482;2023-01-29T16:15:02;22.10;20.40
16532;DHT22;66872;63.142;14.482;2023-01-29T16:17:46;22.10;20.50
16532;DHT22;66872;63.142;14.482;2023-01-29T16:20:42;22.00;20.50
16532;DHT22;66872;63.142;14.482;2023-01-29T16:23:27;22.00;20.50
16532;DHT22;66872;63.142;14.482;2023-01-29T16:26:14;21.90;20.50
16532;DHT22;66872;63.142;14.482;2023-01-29T16:29:08;22.00;20.60
16532;DHT22;66872;63.142;14.482;2023-01-29T16:31:54;22.00;20.50
16532;DHT22;66872;63.142;14.482;2023-01-29T16:34:41;22.00;20.50
16532;DHT22;66872;63.142;14.482;2023-01-29T16:37:23;22.00;20.50
16532;DHT22;66872;63.142;14.482;2023-01-29T16:39:50;21.90;20.50
16532;DHT22;66872;63.142;14.482;2023-01-29T16:42:28;21.90;20.50
16532;DHT22;66872;63.142;14.482;2023-01-29T16:48:42;21.80;20.50
16532;DHT22;66872;63.142;14.482;2023-01-29T16:57:51;21.70;20.50
16532;DHT22;66872;63.142;14.482;2023-01-29T17:00:43;21.70;20.50
16532;DHT22;66872;63.142;14.482;2023-01-29T17:03:11;21.70;20.50
16532;DHT22;66872;63.142;14.482;2023-01-29T17:05:38;21.70;20.50
16532;DHT22;66872;63.142;14.482;2023-01-29T17:15:00;21.60;20.50
16532;DHT22;66872;63.142;14.482;2023-01-29T17:17:34;21.60;20.40
16532;DHT22;66872;63.142;14.482;2023-01-29T17:20:29;21.60;20.50
16532;DHT22;66872;63.142;14.482;2023-01-29T17:22:55;21.60;20.50
16532;DHT22;66872;63.142;14.482;2023-01-29T17:31:10;21.60;20.40
16532;DHT22;66872;63.142;14.482;2023-01-29T17:33:56;21.60;20.50
16532;DHT22;66872;63.142;14.482;2023-01-29T17:36:22;21.70;20.60
16532;DHT22;66872;63.142;14.482;2023-01-29T17:42:13;21.60;20.60
16532;DHT22;66872;63.142;14.482;2023-01-29T17:44:59;21.60;20.70
16532;DHT22;66872;63.142;14.482;2023-01-29T17:51:19;21.60;20.80
16532;DHT22;66872;63.142;14.482;2023-01-29T17:54:04;21.70;20.90
16532;DHT22;66872;63.142;14.482;2023-01-29T17:56:50;21.70;20.90
16532;DHT22;66872;63.142;14.482;2023-01-29T18:05:05;21.60;21.10
16532;DHT22;66872;63.142;14.482;2023-01-29T18:13:56;21.60;21.60
16532;DHT22;66872;63.142;14.482;2023-01-29T18:16:43;21.60;21.80
16532;DHT22;66872;63.142;14.482;2023-01-29T18:19:49;21.60;21.90
16532;DHT22;66872;63.142;14.482;2023-01-29T18:22:33;21.60;21.80
16532;DHT22;66872;63.142;14.482;2023-01-29T18:28:04;21.70;22.10
16532;DHT22;66872;63.142;14.482;2023-01-29T18:30:48;21.60;22.10
16532;DHT22;66872;63.142;14.482;2023-01-29T18:36:38;21.60;22.10
16532;DHT22;66872;63.142;14.482;2023-01-29T18:39:03;21.70;22.30
16532;DHT22;66872;63.142;14.482;2023-01-29T18:41:48;21.60;22.20
16532;DHT22;66872;63.142;14.482;2023-01-29T18:44:13;21.60;22.30
16532;DHT22;66872;63.142;14.482;2023-01-29T18:46:59;21.60;22.20
16532;DHT22;66872;63.142;14.482;2023-01-29T18:49:43;21.60;22.20
16532;DHT22;66872;63.142;14.482;2023-01-29T18:52:27;21.60;22.20
16532;DHT22;66872;63.142;14.482;2023-01-29T18:58:35;21.60;22.20
16532;DHT22;66872;63.142;14.482;2023-01-29T19:07:50;21.60;22.10
16532;DHT22;66872;63.142;14.482;2023-01-29T19:13:19;21.70;22.30
16532;DHT22;66872;63.142;14.482;2023-01-29T19:16:10;21.70;22.30
16532;DHT22;66872;63.142;14.482;2023-01-29T19:18:55;21.70;22.30
16532;DHT22;66872;63.142;14.482;2023-01-29T19:27:31;21.70;22.10
16532;DHT22;66872;63.142;14.482;2023-01-29T19:30:15;21.70;22.10
16532;DHT22;66872;63.142;14.482;2023-01-29T19:32:41;21.70;22.10
16532;DHT22;66872;63.142;14.482;2023-01-29T19:35:27;21.60;22.00
16532;DHT22;66872;63.142;14.482;2023-01-29T19:38:13;21.60;22.00
16532;DHT22;66872;63.142;14.482;2023-01-29T19:44:42;21.60;21.80
16532;DHT22;66872;63.142;14.482;2023-01-29T19:47:30;21.70;21.80
16532;DHT22;66872;63.142;14.482;2023-01-29T19:50:16;21.60;21.80
16532;DHT22;66872;63.142;14.482;2023-01-29T19:53:00;21.60;21.70
16532;DHT22;66872;63.142;14.482;2023-01-29T19:55:26;21.60;21.60